sensor_id;sensor_type;location;lat;lon;timestamp;pressure;altitude;pressure_sealevel;temperature;humidity
28626;BME280;18905;42.668;23.364;2023-02-28T00:00:38;95561.44;;;7.85;100.00
28626;BME280;18905;42.668;23.364;2023-02-28T00:03:04;95563.09;;;7.81;100.00
28626;BME280;18905;42.668;23.364;2023-02-28T00:05:30;95533.66;;;7.53;100.00
28626;BME280;18905;42.668;23.364;2023-02-28T00:07:55;95574.66;;;7.82;100.00
28626;BME280;18905;42.668;23.364;2023-02-28T00:10:26;95561.38;;;7.90;100.00
28626;BME280;18905;42.668;23.364;2023-02-28T00:12:54;95571.78;;;7.97;100.00
28626;BME280;18905;42.668;23.364;2023-02-28T00:15:22;95568.47;;;7.81;100.00
28626;BME280;18905;42.668;23.364;2023-02-28T00:17:48;95560.41;;;7.81;100.00
28626;BME280;18905;42.668;23.364;2023-02-28T00:20:13;95564.13;;;7.85;100.00
28626;BME280;18905;42.668;23.364;2023-02-28T00:22:41;95532.28;;;7.32;100.00
28626;BME280;18905;42.668;23.364;2023-02-28T00:25:08;95544.72;;;6.99;100.00
28626;BME280;18905;42.668;23.364;2023-02-28T00:27:35;95573.31;;;7.14;100.00
28626;BME280;18905;42.668;23.364;2023-02-28T00:30:01;95562.72;;;6.99;100.00
28626;BME280;18905;42.668;23.364;2023-02-28T00:32:27;95539.03;;;6.77;100.00
28626;BME280;18905;42.668;23.364;2023-02-28T00:34:52;95589.31;;;7.24;100.00
28626;BME280;18905;42.668;23.364;2023-02-28T00:37:17;95514.78;;;6.87;100.00
28626;BME280;18905;42.668;23.364;2023-02-28T00:39:43;95577.25;;;6.93;100.00
28626;BME280;18905;42.668;23.364;2023-02-28T00:42:08;95580.28;;;7.15;100.00
28626;BME280;18905;42.668;23.364;2023-02-28T00:44:34;95580.16;;;7.25;100.00
28626;BME280;18905;42.668;23.364;2023-02-28T00:47:00;95575.66;;;7.20;100.00
28626;BME280;18905;42.668;23.364;2023-02-28T00:49:26;95535.03;;;6.75;100.00
28626;BME280;18905;42.668;23.364;2023-02-28T00:51:53;95536.81;;;6.56;100.00
28626;BME280;18905;42.668;23.364;2023-02-28T00:54:19;95553.06;;;6.69;100.00
28626;BME280;18905;42.668;23.364;2023-02-28T00:56:45;95531.06;;;6.39;100.00
28626;BME280;18905;42.668;23.364;2023-02-28T00:59:12;95551.63;;;6.48;100.00
28626;BME280;18905;42.668;23.364;2023-02-28T01:01:38;95565.94;;;6.39;100.00
28626;BME280;18905;42.668;23.364;2023-02-28T01:04:03;95585.53;;;6.68;100.00
28626;BME280;18905;42.668;23.364;2023-02-28T01:06:30;95591.97;;;6.72;100.00
28626;BME280;18905;42.668;23.364;2023-02-28T01:08:57;95593.38;;;6.64;100.00
28626;BME280;18905;42.668;23.364;2023-02-28T01:11:22;95575.31;;;6.75;100.00
28626;BME280;18905;42.668;23.364;2023-02-28T01:13:47;95556.59;;;6.93;100.00
28626;BME280;18905;42.668;23.364;2023-02-28T01:16:13;95583.41;;;6.65;100.00
28626;BME280;18905;42.668;23.364;2023-02-28T01:18:39;95584.19;;;6.70;100.00
28626;BME280;18905;42.668;23.364;2023-02-28T01:21:06;95576.00;;;6.85;100.00
28626;BME280;18905;42.668;23.364;2023-02-28T01:23:32;95553.19;;;6.83;100.00
28626;BME280;18905;42.668;23.364;2023-02-28T01:26:04;95560.81;;;6.99;100.00
28626;BME280;18905;42.668;23.364;2023-02-28T01:28:29;95531.44;;;6.84;100.00
28626;BME280;18905;42.668;23.364;2023-02-28T01:30:54;95566.91;;;7.10;100.00
28626;BME280;18905;42.668;23.364;2023-02-28T01:33:20;95558.94;;;7.00;100.00
28626;BME280;18905;42.668;23.364;2023-02-28T01:35:45;95543.81;;;7.09;100.00
28626;BME280;18905;42.668;23.364;2023-02-28T01:38:11;95504.50;;;6.94;100.00
28626;BME280;18905;42.668;23.364;2023-02-28T01:40:36;95567.16;;;7.37;100.00
28626;BME280;18905;42.668;23.364;2023-02-28T01:43:02;95567.03;;;7.47;100.00
28626;BME280;18905;42.668;23.364;2023-02-28T01:45:29;95572.97;;;7.20;100.00
28626;BME280;18905;42.668;23.364;2023-02-28T01:48:02;95564.09;;;7.20;100.00
28626;BME280;18905;42.668;23.364;2023-02-28T01:50:32;95576.75;;;7.43;100.00
28626;BME280;18905;42.668;23.364;2023-02-28T01:53:02;95558.47;;;7.45;100.00
28626;BME280;18905;42.668;23.364;2023-02-28T01:55:30;95561.03;;;7.55;100.00
28626;BME280;18905;42.668;23.364;2023-02-28T01:57:59;95561.50;;;7.62;100.00
28626;BME280;18905;42.668;23.364;2023-02-28T02:00:27;95572.06;;;7.77;100.00
28626;BME280;18905;42.668;23.364;2023-02-28T02:02:56;95569.84;;;7.79;100.00
28626;BME280;18905;42.668;23.364;2023-02-28T02:05:28;95570.00;;;7.69;100.00
28626;BME280;18905;42.668;23.364;2023-02-28T02:07:58;95563.72;;;7.55;100.00
28626;BME280;18905;42.668;23.364;2023-02-28T02:18:40;95554.25;;;7.39;100.00
28626;BME280;18905;42.668;23.364;2023-02-28T02:23:49;95563.31;;;7.43;100.00
28626;BME280;18905;42.668;23.364;2023-02-28T02:26:54;95559.66;;;7.57;100.00
28626;BME280;18905;42.668;23.364;2023-02-28T02:34:53;95565.16;;;7.47;100.00
28626;BME280;18905;42.668;23.364;2023-02-28T02:42:40;95550.53;;;7.35;100.00
28626;BME280;18905;42.668;23.364;2023-02-28T02:45:16;95545.56;;;6.95;100.00
28626;BME280;18905;42.668;23.364;2023-02-28T02:47:44;95567.06;;;6.95;100.00
28626;BME280;18905;42.668;23.364;2023-02-28T02:50:19;95581.50;;;6.99;100.00
28626;BME280;18905;42.668;23.364;2023-02-28T02:52:50;95574.28;;;6.94;100.00
28626;BME280;18905;42.668;23.364;2023-02-28T02:55:18;95560.31;;;6.69;100.00
28626;BME280;18905;42.668;23.364;2023-02-28T02:58:02;95563.19;;;6.77;100.00
28626;BME280;18905;42.668;23.364;2023-02-28T03:00:38;95570.31;;;6.58;100.00
28626;BME280;18905;42.668;23.364;2023-02-28T03:03:08;95577.31;;;6.59;100.00
28626;BME280;18905;42.668;23.364;2023-02-28T03:05:59;95608.22;;;6.52;100.00
28626;BME280;18905;42.668;23.364;2023-02-28T03:08:25;95606.41;;;6.42;100.00
28626;BME280;18905;42.668;23.364;2023-02-28T03:10:56;95582.06;;;6.34;100.00
28626;BME280;18905;42.668;23.364;2023-02-28T03:16:47;95612.06;;;6.36;100.00
28626;BME280;18905;42.668;23.364;2023-02-28T03:20:37;95621.06;;;6.55;100.00
28626;BME280;18905;42.668;23.364;2023-02-28T03:28:19;95637.06;;;6.26;100.00
28626;BME280;18905;42.668;23.364;2023-02-28T03:30:58;95643.44;;;6.35;100.00
28626;BME280;18905;42.668;23.364;2023-02-28T03:33:30;95638.38;;;6.34;100.00
28626;BME280;18905;42.668;23.364;2023-02-28T03:36:02;95644.25;;;6.36;100.00
28626;BME280;18905;42.668;23.364;2023-02-28T03:38:39;95635.72;;;6.29;100.00
28626;BME280;18905;42.668;23.364;2023-02-28T03:41:49;95645.09;;;6.31;100.00
28626;BME280;18905;42.668;23.364;2023-02-28T03:44:23;95645.44;;;6.15;100.00
28626;BME280;18905;42.668;23.364;2023-02-28T03:46:57;95629.41;;;6.05;100.00
28626;BME280;18905;42.668;23.364;2023-02-28T03:49:27;95625.72;;;5.91;100.00
28626;BME280;18905;42.668;23.364;2023-02-28T03:51:56;95628.34;;;6.01;100.00
28626;BME280;18905;42.668;23.364;2023-02-28T03:54:27;95616.38;;;5.88;100.00
28626;BME280;18905;42.668;23.364;2023-02-28T03:57:16;95651.38;;;6.12;100.00
28626;BME280;18905;42.668;23.364;2023-02-28T03:59:50;95642.00;;;6.09;100.00
28626;BME280;18905;42.668;23.364;2023-02-28T04:02:19;95613.16;;;5.91;100.00
28626;BME280;18905;42.668;23.364;2023-02-28T04:04:44;95638.25;;;6.10;100.00
28626;BME280;18905;42.668;23.364;2023-02-28T04:07:13;95641.19;;;6.09;100.00
28626;BME280;18905;42.668;23.364;2023-02-28T04:09:39;95653.94;;;6.32;100.00
28626;BME280;18905;42.668;23.364;2023-02-28T04:12:05;95638.16;;;6.25;100.00
28626;BME280;18905;42.668;23.364;2023-02-28T04:14:30;95640.03;;;6.30;100.00
28626;BME280;18905;42.668;23.364;2023-02-28T04:16:56;95660.38;;;6.31;100.00
28626;BME280;18905;42.668;23.364;2023-02-28T04:19:21;95631.22;;;6.19;100.00
28626;BME280;18905;42.668;23.364;2023-02-28T04:21:49;95625.31;;;6.22;100.00
28626;BME280;18905;42.668;23.364;2023-02-28T04:24:26;95651.22;;;6.37;100.00
28626;BME280;18905;42.668;23.364;2023-02-28T04:26:54;95650.47;;;6.31;100.00
28626;BME280;18905;42.668;23.364;2023-02-28T04:29:28;95645.72;;;6.18;100.00
28626;BME280;18905;42.668;23.364;2023-02-28T04:31:55;95601.38;;;5.77;100.00
28626;BME280;18905;42.668;23.364;2023-02-28T04:34:25;95613.44;;;5.85;100.00
28626;BME280;18905;42.668;23.364;2023-02-28T04:36:50;95639.53;;;6.18;100.00
28626;BME280;18905;42.668;23.364;2023-02-28T04:39:18;95652.84;;;6.33;100.00
28626;BME280;18905;42.668;23.364;2023-02-28T04:41:45;95653.50;;;6.20;100.00
28626;BME280;18905;42.668;23.364;2023-02-28T04:44:10;95665.34;;;6.04;100.00
28626;BME280;18905;42.668;23.364;2023-02-28T04:46:36;95617.78;;;5.66;100.00
28626;BME280;18905;42.668;23.364;2023-02-28T04:49:01;95680.72;;;5.83;100.00
28626;BME280;18905;42.668;23.364;2023-02-28T04:51:28;95660.63;;;5.81;100.00
28626;BME280;18905;42.668;23.364;2023-02-28T04:53:53;95644.81;;;5.74;100.00
28626;BME280;18905;42.668;23.364;2023-02-28T04:56:19;95677.69;;;6.00;100.00
28626;BME280;18905;42.668;23.364;2023-02-28T04:58:45;95666.19;;;5.94;100.00
28626;BME280;18905;42.668;23.364;2023-02-28T05:01:25;95672.34;;;6.00;100.00
28626;BME280;18905;42.668;23.364;2023-02-28T05:03:52;95684.88;;;7.01;100.00
28626;BME280;18905;42.668;23.364;2023-02-28T05:06:18;95680.41;;;7.72;100.00
28626;BME280;18905;42.668;23.364;2023-02-28T05:08:46;95686.63;;;7.44;100.00
28626;BME280;18905;42.668;23.364;2023-02-28T05:11:32;95690.59;;;7.23;100.00
28626;BME280;18905;42.668;23.364;2023-02-28T05:14:02;95533.25;;;6.32;100.00
28626;BME280;18905;42.668;23.364;2023-02-28T05:16:29;95521.28;;;6.81;100.00
28626;BME280;18905;42.668;23.364;2023-02-28T05:18:55;95579.72;;;7.18;100.00
28626;BME280;18905;42.668;23.364;2023-02-28T05:21:30;95532.28;;;6.51;100.00
28626;BME280;18905;42.668;23.364;2023-02-28T05:24:00;95640.31;;;6.67;100.00
28626;BME280;18905;42.668;23.364;2023-02-28T05:26:27;95592.19;;;6.42;100.00
28626;BME280;18905;42.668;23.364;2023-02-28T05:28:53;95608.59;;;6.35;100.00
28626;BME280;18905;42.668;23.364;2023-02-28T05:31:19;95528.31;;;5.62;100.00
28626;BME280;18905;42.668;23.364;2023-02-28T05:33:45;95576.44;;;5.87;100.00
28626;BME280;18905;42.668;23.364;2023-02-28T05:36:10;95609.88;;;6.04;100.00
28626;BME280;18905;42.668;23.364;2023-02-28T05:38:36;95611.25;;;5.92;100.00
28626;BME280;18905;42.668;23.364;2023-02-28T05:41:09;95624.03;;;6.10;100.00
28626;BME280;18905;42.668;23.364;2023-02-28T05:43:37;95536.69;;;5.50;100.00
28626;BME280;18905;42.668;23.364;2023-02-28T05:46:07;95653.81;;;6.08;100.00
28626;BME280;18905;42.668;23.364;2023-02-28T05:48:34;95551.16;;;5.39;100.00
28626;BME280;18905;42.668;23.364;2023-02-28T05:51:00;95714.25;;;6.39;100.00
28626;BME280;18905;42.668;23.364;2023-02-28T05:53:28;95718.81;;;6.39;100.00
28626;BME280;18905;42.668;23.364;2023-02-28T05:55:54;95585.91;;;5.64;100.00
28626;BME280;18905;42.668;23.364;2023-02-28T05:58:22;95584.16;;;5.30;100.00
28626;BME280;18905;42.668;23.364;2023-02-28T06:00:48;95681.66;;;6.12;100.00
28626;BME280;18905;42.668;23.364;2023-02-28T06:03:14;95613.47;;;5.65;100.00
28626;BME280;18905;42.668;23.364;2023-02-28T06:05:41;95580.19;;;5.17;100.00
28626;BME280;18905;42.668;23.364;2023-02-28T06:08:07;95557.41;;;5.25;100.00
28626;BME280;18905;42.668;23.364;2023-02-28T06:10:34;95563.78;;;5.39;100.00
28626;BME280;18905;42.668;23.364;2023-02-28T06:13:00;95593.47;;;5.47;100.00
28626;BME280;18905;42.668;23.364;2023-02-28T06:15:28;95609.50;;;5.52;100.00
28626;BME280;18905;42.668;23.364;2023-02-28T06:17:54;95669.72;;;5.80;100.00
28626;BME280;18905;42.668;23.364;2023-02-28T06:20:22;95555.78;;;5.19;100.00
28626;BME280;18905;42.668;23.364;2023-02-28T06:22:49;95546.72;;;5.20;100.00
28626;BME280;18905;42.668;23.364;2023-02-28T06:25:17;95614.59;;;5.54;100.00
28626;BME280;18905;42.668;23.364;2023-02-28T06:27:43;95562.25;;;5.13;100.00
28626;BME280;18905;42.668;23.364;2023-02-28T06:30:10;95574.53;;;5.24;100.00
28626;BME280;18905;42.668;23.364;2023-02-28T06:32:36;95559.81;;;5.16;100.00
28626;BME280;18905;42.668;23.364;2023-02-28T06:35:03;95725.31;;;6.23;100.00
28626;BME280;18905;42.668;23.364;2023-02-28T06:37:30;95730.06;;;6.41;100.00
28626;BME280;18905;42.668;23.364;2023-02-28T06:39:56;95544.00;;;5.25;100.00
28626;BME280;18905;42.668;23.364;2023-02-28T06:42:23;95549.56;;;5.38;100.00
28626;BME280;18905;42.668;23.364;2023-02-28T06:44:55;95728.94;;;6.57;100.00
28626;BME280;18905;42.668;23.364;2023-02-28T06:47:21;95574.66;;;5.57;100.00
28626;BME280;18905;42.668;23.364;2023-02-28T06:49:47;95646.88;;;5.97;100.00
28626;BME280;18905;42.668;23.364;2023-02-28T06:52:14;95647.97;;;5.96;100.00
28626;BME280;18905;42.668;23.364;2023-02-28T06:54:40;95633.06;;;5.60;100.00
28626;BME280;18905;42.668;23.364;2023-02-28T06:57:06;95583.84;;;5.41;100.00
28626;BME280;18905;42.668;23.364;2023-02-28T06:59:35;95569.91;;;5.39;100.00
28626;BME280;18905;42.668;23.364;2023-02-28T07:02:01;95584.66;;;5.32;100.00
28626;BME280;18905;42.668;23.364;2023-02-28T07:04:28;95582.00;;;5.32;100.00
28626;BME280;18905;42.668;23.364;2023-02-28T07:06:54;95600.69;;;5.57;100.00
28626;BME280;18905;42.668;23.364;2023-02-28T07:09:23;95665.69;;;5.87;100.00
28626;BME280;18905;42.668;23.364;2023-02-28T07:11:49;95593.16;;;5.54;100.00
28626;BME280;18905;42.668;23.364;2023-02-28T07:14:15;95579.72;;;5.69;100.00
28626;BME280;18905;42.668;23.364;2023-02-28T07:16:42;95563.16;;;5.57;100.00
28626;BME280;18905;42.668;23.364;2023-02-28T07:19:19;95703.00;;;6.37;100.00
28626;BME280;18905;42.668;23.364;2023-02-28T07:22:04;95741.06;;;6.39;100.00
28626;BME280;18905;42.668;23.364;2023-02-28T07:24:54;95628.97;;;5.88;100.00
28626;BME280;18905;42.668;23.364;2023-02-28T07:27:42;95686.38;;;6.35;100.00
28626;BME280;18905;42.668;23.364;2023-02-28T07:30:16;95692.56;;;6.31;100.00
28626;BME280;18905;42.668;23.364;2023-02-28T07:32:44;95573.78;;;5.77;100.00
28626;BME280;18905;42.668;23.364;2023-02-28T07:35:12;95563.59;;;5.84;100.00
28626;BME280;18905;42.668;23.364;2023-02-28T07:38:08;95578.69;;;6.18;100.00
28626;BME280;18905;42.668;23.364;2023-02-28T07:40:50;95556.38;;;6.23;100.00
28626;BME280;18905;42.668;23.364;2023-02-28T07:43:16;95625.34;;;6.89;100.00
28626;BME280;18905;42.668;23.364;2023-02-28T07:45:42;95561.88;;;6.75;100.00
28626;BME280;18905;42.668;23.364;2023-02-28T07:48:07;95752.47;;;7.99;100.00
28626;BME280;18905;42.668;23.364;2023-02-28T07:50:35;95580.47;;;6.95;100.00
28626;BME280;18905;42.668;23.364;2023-02-28T07:53:01;95602.13;;;7.32;100.00
28626;BME280;18905;42.668;23.364;2023-02-28T07:55:27;95566.44;;;7.03;100.00
28626;BME280;18905;42.668;23.364;2023-02-28T07:57:53;95733.00;;;8.07;100.00
28626;BME280;18905;42.668;23.364;2023-02-28T08:00:19;95651.56;;;7.59;100.00
28626;BME280;18905;42.668;23.364;2023-02-28T08:02:45;95629.34;;;7.72;100.00
28626;BME280;18905;42.668;23.364;2023-02-28T08:05:11;95666.06;;;8.29;100.00
28626;BME280;18905;42.668;23.364;2023-02-28T08:07:37;95731.38;;;8.58;100.00
28626;BME280;18905;42.668;23.364;2023-02-28T08:10:06;95730.69;;;8.66;100.00
28626;BME280;18905;42.668;23.364;2023-02-28T08:12:34;95726.34;;;8.88;100.00
28626;BME280;18905;42.668;23.364;2023-02-28T08:15:02;95718.16;;;9.12;100.00
28626;BME280;18905;42.668;23.364;2023-02-28T08:17:28;95634.47;;;8.58;100.00
28626;BME280;18905;42.668;23.364;2023-02-28T08:19:54;95561.66;;;8.31;100.00
28626;BME280;18905;42.668;23.364;2023-02-28T08:22:20;95562.69;;;8.35;100.00
28626;BME280;18905;42.668;23.364;2023-02-28T08:24:45;95705.50;;;9.31;100.00
28626;BME280;18905;42.668;23.364;2023-02-28T08:27:12;95639.94;;;9.17;100.00
28626;BME280;18905;42.668;23.364;2023-02-28T08:29:38;95557.84;;;8.82;100.00
28626;BME280;18905;42.668;23.364;2023-02-28T08:32:24;95599.00;;;9.47;100.00
28626;BME280;18905;42.668;23.364;2023-02-28T08:34:51;95726.34;;;10.30;100.00
28626;BME280;18905;42.668;23.364;2023-02-28T08:37:22;95588.53;;;9.59;100.00
28626;BME280;18905;42.668;23.364;2023-02-28T08:39:51;95621.81;;;9.95;100.00
28626;BME280;18905;42.668;23.364;2023-02-28T08:42:17;95599.84;;;9.74;100.00
28626;BME280;18905;42.668;23.364;2023-02-28T08:44:42;95607.88;;;10.01;100.00
28626;BME280;18905;42.668;23.364;2023-02-28T08:47:08;95582.94;;;9.82;100.00
28626;BME280;18905;42.668;23.364;2023-02-28T08:49:39;95554.25;;;9.32;100.00
28626;BME280;18905;42.668;23.364;2023-02-28T08:52:06;95585.03;;;9.45;100.00
28626;BME280;18905;42.668;23.364;2023-02-28T08:54:32;95583.94;;;9.59;100.00
28626;BME280;18905;42.668;23.364;2023-02-28T08:56:58;95666.28;;;10.11;100.00
28626;BME280;18905;42.668;23.364;2023-02-28T08:59:24;95652.91;;;10.06;100.00
28626;BME280;18905;42.668;23.364;2023-02-28T09:01:50;95573.66;;;9.61;100.00
28626;BME280;18905;42.668;23.364;2023-02-28T09:04:16;95555.19;;;9.82;100.00
28626;BME280;18905;42.668;23.364;2023-02-28T09:06:42;95580.63;;;10.03;100.00
28626;BME280;18905;42.668;23.364;2023-02-28T09:09:07;95598.31;;;10.36;100.00
28626;BME280;18905;42.668;23.364;2023-02-28T09:11:35;95713.47;;;11.25;100.00
28626;BME280;18905;42.668;23.364;2023-02-28T09:17:21;95715.38;;;10.89;100.00
28626;BME280;18905;42.668;23.364;2023-02-28T09:19:48;95654.84;;;10.54;100.00
28626;BME280;18905;42.668;23.364;2023-02-28T09:22:48;95582.53;;;10.16;100.00
28626;BME280;18905;42.668;23.364;2023-02-28T09:25:46;95714.03;;;11.35;100.00
28626;BME280;18905;42.668;23.364;2023-02-28T09:29:10;95717.97;;;10.94;100.00
28626;BME280;18905;42.668;23.364;2023-02-28T09:32:06;95714.72;;;11.63;100.00
28626;BME280;18905;42.668;23.364;2023-02-28T09:34:45;95700.31;;;11.76;100.00
28626;BME280;18905;42.668;23.364;2023-02-28T09:37:17;95589.94;;;10.81;100.00
28626;BME280;18905;42.668;23.364;2023-02-28T09:40:30;95552.66;;;11.14;100.00
28626;BME280;18905;42.668;23.364;2023-02-28T09:43:29;95712.56;;;12.43;100.00
28626;BME280;18905;42.668;23.364;2023-02-28T09:46:28;95644.16;;;11.29;100.00
28626;BME280;18905;42.668;23.364;2023-02-28T09:49:28;95612.47;;;11.21;100.00
28626;BME280;18905;42.668;23.364;2023-02-28T09:52:09;95529.84;;;11.06;100.00
28626;BME280;18905;42.668;23.364;2023-02-28T09:54:39;95557.94;;;10.97;100.00
28626;BME280;18905;42.668;23.364;2023-02-28T09:57:17;95550.28;;;10.90;100.00
28626;BME280;18905;42.668;23.364;2023-02-28T10:02:52;95614.53;;;10.80;100.00
28626;BME280;18905;42.668;23.364;2023-02-28T10:05:35;95541.38;;;10.46;100.00
28626;BME280;18905;42.668;23.364;2023-02-28T10:10:45;95614.88;;;11.00;100.00
28626;BME280;18905;42.668;23.364;2023-02-28T10:15:58;95529.63;;;10.50;100.00
28626;BME280;18905;42.668;23.364;2023-02-28T10:18:56;95696.44;;;11.91;100.00
28626;BME280;18905;42.668;23.364;2023-02-28T10:21:31;95671.81;;;11.70;100.00
28626;BME280;18905;42.668;23.364;2023-02-28T10:24:04;95543.88;;;11.08;100.00
28626;BME280;18905;42.668;23.364;2023-02-28T10:26:32;95542.50;;;11.19;100.00
28626;BME280;18905;42.668;23.364;2023-02-28T10:28:58;95529.47;;;11.21;100.00
28626;BME280;18905;42.668;23.364;2023-02-28T10:31:24;95669.06;;;11.92;100.00
28626;BME280;18905;42.668;23.364;2023-02-28T10:33:50;95561.56;;;11.84;100.00
28626;BME280;18905;42.668;23.364;2023-02-28T10:36:18;95672.16;;;12.72;100.00
28626;BME280;18905;42.668;23.364;2023-02-28T10:38:46;95626.56;;;12.66;100.00
28626;BME280;18905;42.668;23.364;2023-02-28T10:41:37;95509.41;;;12.09;100.00
28626;BME280;18905;42.668;23.364;2023-02-28T10:44:22;95657.91;;;13.77;100.00
28626;BME280;18905;42.668;23.364;2023-02-28T10:46:53;95548.00;;;13.00;100.00
28626;BME280;18905;42.668;23.364;2023-02-28T10:49:27;95591.84;;;12.93;100.00
28626;BME280;18905;42.668;23.364;2023-02-28T10:51:57;95478.97;;;11.78;100.00
28626;BME280;18905;42.668;23.364;2023-02-28T10:54:32;95506.69;;;12.09;100.00
28626;BME280;18905;42.668;23.364;2023-02-28T10:57:23;95524.25;;;12.29;100.00
28626;BME280;18905;42.668;23.364;2023-02-28T11:00:32;95478.78;;;11.66;100.00
28626;BME280;18905;42.668;23.364;2023-02-28T11:02:52;95515.28;;;11.94;100.00
28626;BME280;18905;42.668;23.364;2023-02-28T11:05:27;95478.69;;;12.39;100.00
28626;BME280;18905;42.668;23.364;2023-02-28T11:08:14;95475.19;;;11.96;100.00
28626;BME280;18905;42.668;23.364;2023-02-28T11:10:45;95608.38;;;12.49;100.00
28626;BME280;18905;42.668;23.364;2023-02-28T11:13:20;95463.03;;;11.29;100.00
28626;BME280;18905;42.668;23.364;2023-02-28T11:15:55;95513.16;;;11.74;100.00
28626;BME280;18905;42.668;23.364;2023-02-28T11:20:51;95480.44;;;12.10;100.00
28626;BME280;18905;42.668;23.364;2023-02-28T11:23:22;95478.69;;;12.39;100.00
28626;BME280;18905;42.668;23.364;2023-02-28T11:25:57;95613.19;;;12.95;100.00
28626;BME280;18905;42.668;23.364;2023-02-28T11:28:35;95605.06;;;12.86;100.00
28626;BME280;18905;42.668;23.364;2023-02-28T11:31:26;95474.38;;;12.21;100.00
28626;BME280;18905;42.668;23.364;2023-02-28T11:33:55;95467.34;;;11.69;100.00
28626;BME280;18905;42.668;23.364;2023-02-28T11:36:26;95477.41;;;12.11;100.00
28626;BME280;18905;42.668;23.364;2023-02-28T11:38:54;95457.41;;;11.56;100.00
28626;BME280;18905;42.668;23.364;2023-02-28T11:41:40;95522.25;;;11.78;100.00
28626;BME280;18905;42.668;23.364;2023-02-28T11:47:54;95601.69;;;12.47;100.00
28626;BME280;18905;42.668;23.364;2023-02-28T11:51:06;95603.44;;;12.94;100.00
28626;BME280;18905;42.668;23.364;2023-02-28T11:53:50;95597.50;;;12.32;100.00
28626;BME280;18905;42.668;23.364;2023-02-28T11:56:33;95505.59;;;11.54;100.00
28626;BME280;18905;42.668;23.364;2023-02-28T12:05:24;95537.31;;;12.35;100.00
28626;BME280;18905;42.668;23.364;2023-02-28T12:19:39;95463.22;;;11.41;100.00
28626;BME280;18905;42.668;23.364;2023-02-28T12:22:22;95595.16;;;12.39;100.00
28626;BME280;18905;42.668;23.364;2023-02-28T12:25:19;95460.03;;;11.30;100.00
28626;BME280;18905;42.668;23.364;2023-02-28T12:27:48;95547.44;;;11.87;100.00
28626;BME280;18905;42.668;23.364;2023-02-28T12:30:34;95525.06;;;11.64;100.00
28626;BME280;18905;42.668;23.364;2023-02-28T12:35:36;95545.25;;;12.06;100.00
28626;BME280;18905;42.668;23.364;2023-02-28T12:38:15;95547.28;;;11.92;100.00
28626;BME280;18905;42.668;23.364;2023-02-28T12:40:53;95596.56;;;12.37;100.00
28626;BME280;18905;42.668;23.364;2023-02-28T12:43:22;95464.00;;;11.89;100.00
28626;BME280;18905;42.668;23.364;2023-02-28T12:45:54;95585.31;;;12.86;100.00
28626;BME280;18905;42.668;23.364;2023-02-28T12:48:29;95457.50;;;12.16;100.00
28626;BME280;18905;42.668;23.364;2023-02-28T12:50:57;95482.84;;;12.11;100.00
28626;BME280;18905;42.668;23.364;2023-02-28T12:59:21;95538.75;;;12.84;100.00
28626;BME280;18905;42.668;23.364;2023-02-28T13:02:18;95578.38;;;13.39;100.00
28626;BME280;18905;42.668;23.364;2023-02-28T13:07:53;95574.59;;;13.15;100.00
28626;BME280;18905;42.668;23.364;2023-02-28T13:10:23;95492.06;;;12.61;100.00
28626;BME280;18905;42.668;23.364;2023-02-28T13:12:50;95464.03;;;12.49;100.00
28626;BME280;18905;42.668;23.364;2023-02-28T13:17:48;95452.41;;;12.14;100.00
28626;BME280;18905;42.668;23.364;2023-02-28T13:20:29;95446.19;;;12.22;100.00
28626;BME280;18905;42.668;23.364;2023-02-28T13:23:00;95489.84;;;12.29;100.00
28626;BME280;18905;42.668;23.364;2023-02-28T13:28:02;95581.00;;;15.66;100.00
28626;BME280;18905;42.668;23.364;2023-02-28T13:51:48;95550.94;;;18.96;84.27
28626;BME280;18905;42.668;23.364;2023-02-28T13:54:25;95550.41;;;18.37;85.08
28626;BME280;18905;42.668;23.364;2023-02-28T14:00:05;95551.19;;;18.38;78.26
28626;BME280;18905;42.668;23.364;2023-02-28T14:02:37;95553.59;;;17.93;86.96
28626;BME280;18905;42.668;23.364;2023-02-28T14:05:14;95551.88;;;18.50;80.21
28626;BME280;18905;42.668;23.364;2023-02-28T14:07:47;95559.88;;;17.50;83.74
28626;BME280;18905;42.668;23.364;2023-02-28T14:10:24;95548.97;;;16.56;79.87
28626;BME280;18905;42.668;23.364;2023-02-28T14:13:39;95574.59;;;17.61;81.39
28626;BME280;18905;42.668;23.364;2023-02-28T14:16:11;95569.25;;;17.37;87.20
28626;BME280;18905;42.668;23.364;2023-02-28T14:18:42;95565.59;;;16.66;87.95
28626;BME280;18905;42.668;23.364;2023-02-28T14:21:16;95557.00;;;16.16;89.67
28626;BME280;18905;42.668;23.364;2023-02-28T14:32:26;95564.38;;;17.31;90.25
28626;BME280;18905;42.668;23.364;2023-02-28T14:37:38;95567.09;;;17.58;85.97
28626;BME280;18905;42.668;23.364;2023-02-28T14:40:14;95571.09;;;17.61;85.14
28626;BME280;18905;42.668;23.364;2023-02-28T14:42:54;95558.03;;;16.99;81.31
28626;BME280;18905;42.668;23.364;2023-02-28T14:45:21;95569.44;;;17.44;85.42
28626;BME280;18905;42.668;23.364;2023-02-28T14:47:49;95556.03;;;17.82;78.55
28626;BME280;18905;42.668;23.364;2023-02-28T14:50:20;95553.56;;;17.34;88.82
28626;BME280;18905;42.668;23.364;2023-02-28T14:52:47;95544.84;;;17.87;87.48
28626;BME280;18905;42.668;23.364;2023-02-28T14:55:17;95564.41;;;17.89;79.54
28626;BME280;18905;42.668;23.364;2023-02-28T14:57:59;95559.22;;;18.15;79.49
28626;BME280;18905;42.668;23.364;2023-02-28T15:00:25;95568.63;;;17.71;76.18
28626;BME280;18905;42.668;23.364;2023-02-28T15:02:52;95561.22;;;17.72;85.82
28626;BME280;18905;42.668;23.364;2023-02-28T15:08:01;95564.72;;;18.65;80.77
28626;BME280;18905;42.668;23.364;2023-02-28T15:10:27;95560.66;;;18.94;77.61
28626;BME280;18905;42.668;23.364;2023-02-28T15:18:05;95550.56;;;18.13;89.54